Time;durP1;ratioP1;P1;durP2;ratioP2;P2;SDS_P1;SDS_P2;PMS_P1;PMS_P2;Temp;Humidity;BMP_temperature;BMP_pressure;BME280_temperature;BME280_humidity;BME280_pressure;Samples;Min_cycle;Max_cycle;Signal;HPM_P1;HPM_P2
2021/05/29 03:53:29;;;;;;;191.70;183.20;;;5.50;99.90;;;;;;5923403;23;20161;-80
2021/05/29 03:55:55;;;;;;;201.20;192.03;;;5.50;99.90;;;;;;6128330;23;20264;-79
2021/05/29 03:59:11;;;;;;;201.60;192.00;;;5.60;99.90;;;;;;6155427;23;20410;-84
2021/05/29 04:02:49;;;;;;;207.77;197.70;;;5.70;99.90;;;;;;6150708;23;20501;-87
2021/05/29 04:16:36;;;;;;;;;;;;;;;;;;;;;
2021/05/29 04:31:06;;;;;;;222.87;213.43;;;6.10;99.90;;;;;;5812949;24;20943;-84
2021/05/29 04:44:56;;;;;;;230.87;220.90;;;6.40;99.90;;;;;;5954894;23;20176;-83
2021/05/29 04:47:59;;;;;;;236.90;226.47;;;6.70;99.90;;;;;;6051159;23;20457;-83
2021/05/29 04:58:08;;;;;;;;;;;;;;;;;;;;;
2021/05/29 05:00:34;;;;;;;271.47;259.97;;;7.10;99.90;;;;;;5922083;24;20432;-81
2021/05/29 05:03:00;;;;;;;265.30;253.47;;;7.30;99.90;;;;;;6036445;23;20859;-78
2021/05/29 05:05:27;;;;;;;269.07;257.13;;;7.40;99.90;;;;;;6137796;23;20409;-77
2021/05/29 05:07:54;;;;;;;279.10;267.23;;;7.50;99.90;;;;;;6154204;23;20398;-77
2021/05/29 05:10:22;;;;;;;304.60;292.10;;;7.70;99.90;;;;;;6154975;23;20445;-83
2021/05/29 05:12:51;;;;;;;289.87;278.17;;;7.70;99.90;;;;;;6155558;23;20402;-83
2021/05/29 05:15:17;;;;;;;323.17;309.70;;;8.00;99.90;;;;;;6156012;23;20402;-79
2021/05/29 05:18:21;;;;;;;;;;;;;;;;;;;;;
2021/05/29 05:20:57;;;;;;;354.07;339.20;;;8.50;99.90;;;;;;6165207;23;20407;-80
2021/05/29 05:23:47;;;;;;;355.23;340.63;;;8.90;99.90;;;;;;6154187;23;20461;-81
2021/05/29 05:26:23;;;;;;;348.00;333.60;;;9.30;99.90;;;;;;6036194;23;20765;-81
2021/05/29 05:28:57;;;;;;;201.77;192.57;;;9.90;99.90;;;;;;6123565;23;20521;-82
2021/05/29 05:31:29;;;;;;;112.73;106.50;;;10.40;99.90;;;;;;6165383;23;20452;-82
2021/05/29 05:34:06;;;;;;;;;;;;;;;;;;;;;
2021/05/29 06:00:31;;;;;;;36.40;6.57;;;14.60;89.90;;;;;;6139974;23;20443;-81
2021/05/29 06:02:58;;;;;;;37.17;5.10;;;15.30;70.00;;;;;;6216570;23;20887;-81
2021/05/29 06:05:37;;;;;;;38.53;5.80;;;15.00;55.00;;;;;;6216936;23;20401;-82
2021/05/29 06:09:14;;;;;;;36.83;5.63;;;14.80;58.90;;;;;;6215234;23;20407;-82
2021/05/29 06:11:43;;;;;;;39.07;6.60;;;15.30;60.70;;;;;;6110674;23;20408;-81
2021/05/29 06:19:48;;;;;;;41.50;5.47;;;16.50;39.40;;;;;;6226860;23;20814;-82
2021/05/29 06:22:25;;;;;;;42.03;5.43;;;16.30;40.90;;;;;;6225255;23;20799;-83
2021/05/29 06:48:14;;;;;;;;;;;;;;;;;;;;;
2021/05/29 06:51:09;;;;;;;;;;;;;;;;;;;;;
2021/05/29 08:14:57;;;;;;;39.83;4.37;;;18.50;12.70;;;;;;6275448;22;20855;-83
2021/05/29 08:18:10;;;;;;;;;;;;;;;;;;;;;
2021/05/29 08:23:45;;;;;;;40.90;5.20;;;19.10;11.10;;;;;;6259737;22;20444;-83
2021/05/29 08:26:11;;;;;;;42.80;5.17;;;19.40;10.80;;;;;;6266750;22;20465;-80
2021/05/29 08:38:49;;;;;;;41.43;4.60;;;19.90;9.20;;;;;;6049808;22;20974;-83
2021/05/29 08:41:16;;;;;;;39.00;3.90;;;20.00;8.20;;;;;;6286754;22;20403;-82
2021/05/29 08:43:43;;;;;;;38.33;3.73;;;20.60;8.30;;;;;;6287103;22;20398;-82
2021/05/29 08:46:10;;;;;;;39.00;3.47;;;20.10;2.20;;;;;;6286955;22;20509;-82
2021/05/29 08:52:21;;;;;;;37.70;2.50;;;19.90;1.00;;;;;;6024993;23;20416;-82
2021/05/29 08:55:17;;;;;;;36.10;2.27;;;20.00;1.00;;;;;;5979943;24;20469;-84
2021/05/29 08:57:58;;;;;;;37.00;3.03;;;19.70;1.00;;;;;;5980359;24;20415;-80
2021/05/29 09:00:39;;;;;;;37.00;2.60;;;19.70;1.00;;;;;;5979582;24;20454;-82
2021/05/29 09:03:12;;;;;;;35.97;2.33;;;20.10;1.00;;;;;;5980062;24;20927;-83
2021/05/29 09:05:56;;;;;;;35.50;1.90;;;19.80;1.00;;;;;;6089683;22;20410;-82
2021/05/29 09:11:48;;;;;;;36.87;2.97;;;20.10;1.00;;;;;;6189774;22;20468;-81
2021/05/29 09:14:34;;;;;;;36.00;2.50;;;20.80;1.00;;;;;;6275760;22;20444;-81
2021/05/29 09:17:14;;;;;;;35.73;2.17;;;20.80;1.00;;;;;;6275796;22;20928;-86
2021/05/29 09:19:58;;;;;;;35.73;2.47;;;21.20;1.00;;;;;;6275959;22;20500;-83
2021/05/29 09:22:26;;;;;;;38.83;2.70;;;21.00;1.00;;;;;;6274913;22;20402;-82
2021/05/29 09:28:23;;;;;;;36.93;3.00;;;19.70;1.00;;;;;;6105281;23;20420;-80
2021/05/29 10:19:27;;;;;;;35.93;2.70;;;19.60;1.00;;;;;;6180265;23;20872;-84
2021/05/29 10:28:45;;;;;;;34.53;2.70;;;20.90;1.00;;;;;;6007108;23;20410;-86
2021/05/29 10:37:43;;;;;;;40.77;4.00;;;20.10;1.00;;;;;;5933278;24;20172;-83
2021/05/29 10:40:17;;;;;;;38.80;3.90;;;21.10;1.00;;;;;;6020111;23;20516;-86
2021/05/29 10:42:44;;;;;;;38.97;3.30;;;21.40;1.00;;;;;;6108311;23;20466;-86
2021/05/29 10:45:19;;;;;;;39.00;3.37;;;20.60;1.00;;;;;;6226709;23;20494;-87
2021/05/29 10:48:06;;;;;;;37.40;2.37;;;20.30;1.00;;;;;;6226975;23;20712;-81
2021/05/29 10:50:59;;;;;;;37.77;3.40;;;20.70;1.00;;;;;;6216749;23;20483;-87
2021/05/29 10:57:07;;;;;;;36.17;3.10;;;21.30;1.00;;;;;;6033955;23;21008;-81
2021/05/29 10:59:54;;;;;;;37.40;4.00;;;22.30;1.00;;;;;;6173937;23;20506;-82
2021/05/29 11:03:07;;;;;;;36.87;2.97;;;22.40;1.00;;;;;;6226497;23;20483;-81
2021/05/29 11:05:56;;;;;;;;;;;;;;;;;;;;;
2021/05/29 11:15:58;;;;;;;48.30;7.53;;;24.40;1.00;;;;;;6030922;23;20429;-88
2021/05/29 11:18:25;;;;;;;48.87;7.00;;;24.00;1.00;;;;;;6120226;23;20438;-82
2021/05/29 11:21:20;;;;;;;50.80;10.53;;;22.10;1.00;;;;;;6133841;23;20481;-84
2021/05/29 11:23:55;;;;;;;42.97;3.50;;;21.40;1.00;;;;;;6225729;23;20428;-85
2021/05/29 11:26:25;;;;;;;47.83;6.27;;;21.90;1.00;;;;;;6226207;23;20453;-84
2021/05/29 11:28:51;;;;;;;44.17;5.60;;;21.40;1.00;;;;;;6216605;23;20397;-85
2021/05/29 11:31:27;;;;;;;42.67;5.53;;;21.70;1.00;;;;;;6226304;23;20412;-83
2021/05/29 11:33:54;;;;;;;46.10;4.67;;;21.90;1.00;;;;;;6226570;23;20411;-81
2021/05/29 11:36:30;;;;;;;44.53;5.07;;;21.20;1.00;;;;;;6214578;23;20432;-79
2021/05/29 11:39:06;;;;;;;46.33;4.97;;;20.30;1.00;;;;;;6226693;23;20458;-79
2021/05/29 11:41:35;;;;;;;38.03;4.73;;;20.80;1.00;;;;;;6226004;23;20450;-79
2021/05/29 11:44:02;;;;;;;40.87;5.53;;;21.60;1.00;;;;;;6226444;23;20955;-79
2021/05/29 11:46:30;;;;;;;41.80;5.20;;;22.20;1.00;;;;;;6226109;23;20792;-79
2021/05/29 11:48:59;;;;;;;40.77;5.30;;;22.80;1.00;;;;;;6226488;23;20440;-80
2021/05/29 11:51:30;;;;;;;39.77;4.53;;;23.50;1.00;;;;;;6224631;23;20396;-80
2021/05/29 11:54:05;;;;;;;42.40;5.53;;;24.20;1.00;;;;;;6226413;23;20443;-80
2021/05/29 11:56:34;;;;;;;45.67;5.47;;;22.80;1.00;;;;;;6215781;23;20400;-79
2021/05/29 11:59:01;;;;;;;44.77;6.33;;;21.90;1.00;;;;;;6226199;23;20443;-79
2021/05/29 12:01:32;;;;;;;44.17;6.43;;;22.00;1.00;;;;;;6216178;23;20443;-79
2021/05/29 12:04:00;;;;;;;44.23;6.80;;;22.90;1.00;;;;;;6216293;23;20461;-79
2021/05/29 12:06:54;;;;;;;46.23;6.03;;;22.80;1.00;;;;;;6224547;23;20412;-83
2021/05/29 12:09:23;;;;;;;44.47;6.53;;;21.50;1.00;;;;;;6225837;23;20400;-81
2021/05/29 12:11:51;;;;;;;38.90;4.37;;;21.30;1.00;;;;;;6216177;23;20396;-80
2021/05/29 12:14:19;;;;;;;43.30;8.30;;;21.30;1.00;;;;;;6216161;23;20478;-82
2021/05/29 12:16:51;;;;;;;39.77;6.10;;;20.90;1.00;;;;;;6216275;23;20396;-82
2021/05/29 12:19:33;;;;;;;37.50;5.47;;;21.00;1.00;;;;;;6215862;23;20400;-81
2021/05/29 12:22:01;;;;;;;37.90;5.40;;;21.60;1.00;;;;;;6214369;23;20407;-82
2021/05/29 12:24:36;;;;;;;41.80;7.03;;;21.70;1.00;;;;;;6226024;23;20435;-81
2021/05/29 12:27:03;;;;;;;38.43;6.10;;;22.60;1.00;;;;;;6215411;23;20434;-81
2021/05/29 12:29:30;;;;;;;43.60;4.20;;;22.50;1.00;;;;;;6216153;23;20495;-81
2021/05/29 12:31:58;;;;;;;41.27;4.77;;;22.90;1.00;;;;;;6215373;23;20872;-81
2021/05/29 12:34:29;;;;;;;39.03;5.70;;;23.10;1.00;;;;;;6216049;23;20396;-81
2021/05/29 12:36:57;;;;;;;45.67;7.27;;;22.60;1.00;;;;;;6223979;23;20915;-82
2021/05/29 12:39:40;;;;;;;51.90;6.50;;;22.60;1.00;;;;;;6225926;23;20403;-82
2021/05/29 12:42:18;;;;;;;48.83;8.80;;;22.20;1.00;;;;;;6225766;23;20400;-82
2021/05/29 12:44:51;;;;;;;46.97;7.03;;;21.50;1.00;;;;;;6215872;23;20407;-83
2021/05/29 12:47:19;;;;;;;44.10;8.23;;;21.70;1.00;;;;;;6215903;23;20395;-82
2021/05/29 12:49:47;;;;;;;45.03;8.10;;;22.30;1.00;;;;;;6215927;23;20400;-83
2021/05/29 12:52:24;;;;;;;41.77;6.70;;;22.90;1.00;;;;;;6223993;23;20412;-83
2021/05/29 12:54:50;;;;;;;50.67;8.40;;;23.00;1.00;;;;;;6215694;23;20454;-83
2021/05/29 12:57:35;;;;;;;47.20;7.63;;;22.90;1.00;;;;;;6215725;23;20396;-83
2021/05/29 13:00:18;;;;;;;44.10;6.10;;;23.70;1.00;;;;;;6215286;23;20447;-83
2021/05/29 13:09:03;;;;;;;48.50;6.83;;;23.10;1.00;;;;;;6215581;23;20399;-82
2021/05/29 13:11:31;;;;;;;44.87;5.57;;;22.30;1.00;;;;;;6215595;23;20411;-82
2021/05/29 13:14:02;;;;;;;45.83;6.17;;;21.40;1.00;;;;;;6225394;23;20471;-82
2021/05/29 13:16:30;;;;;;;43.10;7.83;;;20.80;1.00;;;;;;6215622;23;20404;-82
2021/05/29 13:19:01;;;;;;;42.20;7.27;;;20.90;1.00;;;;;;6225582;23;20400;-82
2021/05/29 13:21:28;;;;;;;39.47;6.20;;;21.70;1.00;;;;;;6214087;23;20470;-82
2021/05/29 13:23:57;;;;;;;40.37;6.00;;;22.60;1.00;;;;;;6225608;23;20854;-82
2021/05/29 13:26:24;;;;;;;41.47;6.20;;;22.30;1.00;;;;;;6225543;23;20408;-80
2021/05/29 13:29:17;;;;;;;41.40;5.73;;;21.70;1.00;;;;;;6215662;23;20408;-80
2021/05/29 13:32:22;;;;;;;38.27;4.90;;;20.60;1.00;;;;;;6167836;23;20733;-81
2021/05/29 13:34:50;;;;;;;43.93;8.20;;;20.40;1.00;;;;;;6212618;23;20845;-80
2021/05/29 13:37:18;;;;;;;40.40;7.63;;;20.30;1.00;;;;;;6214177;23;20428;-79
2021/05/29 13:39:45;;;;;;;37.10;7.17;;;20.70;1.00;;;;;;6215578;23;20511;-79
2021/05/29 13:42:35;;;;;;;37.97;7.97;;;21.10;1.00;;;;;;6215324;23;20404;-82
2021/05/29 13:45:09;;;;;;;40.83;7.97;;;21.40;1.00;;;;;;6211851;23;20547;-82
2021/05/29 13:47:39;;;;;;;43.67;7.20;;;21.80;1.00;;;;;;6225297;23;20880;-82
2021/05/29 13:50:07;;;;;;;39.57;7.37;;;22.60;1.00;;;;;;6225259;23;20400;-82
2021/05/29 13:52:34;;;;;;;38.93;6.13;;;22.80;1.00;;;;;;6214292;23;20396;-83
2021/05/29 13:55:04;;;;;;;40.53;5.20;;;23.00;1.00;;;;;;6225269;23;20415;-82
2021/05/29 13:57:43;;;;;;;42.63;6.37;;;22.70;1.00;;;;;;6215215;23;20400;-83
2021/05/29 14:07:19;;;;;;;44.30;4.50;;;22.40;1.00;;;;;;6082301;23;20419;-81
2021/05/29 14:09:49;;;;;;;43.23;5.70;;;21.50;1.00;;;;;;6045442;23;20417;-81
2021/05/29 14:12:16;;;;;;;41.00;4.57;;;22.60;1.00;;;;;;6198020;23;20462;-82
2021/05/29 14:14:58;;;;;;;44.00;6.57;;;21.20;1.00;;;;;;6227200;23;20454;-81
2021/05/29 14:17:48;;;;;;;41.40;5.70;;;20.80;1.00;;;;;;6174374;23;20400;-81
2021/05/29 14:20:18;;;;;;;40.47;5.37;;;21.20;1.00;;;;;;6210775;23;20444;-81
2021/05/29 14:22:44;;;;;;;34.90;3.70;;;22.10;1.00;;;;;;6225989;23;20443;-80
2021/05/29 14:25:16;;;;;;;38.60;4.80;;;22.00;1.00;;;;;;6217697;23;20728;-79
2021/05/29 14:27:43;;;;;;;42.77;4.97;;;22.00;1.00;;;;;;6227486;23;20427;-79
2021/05/29 14:30:10;;;;;;;40.23;3.83;;;20.70;1.00;;;;;;6214736;23;20445;-79
2021/05/29 14:32:38;;;;;;;40.90;5.30;;;20.00;1.00;;;;;;6224869;23;20403;-80
2021/05/29 14:35:06;;;;;;;36.67;4.77;;;20.80;1.00;;;;;;6214820;23;20429;-79
2021/05/29 14:37:32;;;;;;;39.43;5.20;;;21.70;1.00;;;;;;6213641;23;20404;-79
2021/05/29 14:40:04;;;;;;;37.50;4.90;;;22.70;1.00;;;;;;6225198;23;20451;-88
2021/05/29 14:42:33;;;;;;;35.20;4.33;;;23.70;1.00;;;;;;6217060;23;20411;-80
2021/05/29 14:44:59;;;;;;;36.20;4.27;;;23.90;1.00;;;;;;6216617;23;20404;-80
2021/05/29 14:47:26;;;;;;;39.17;4.60;;;23.40;1.00;;;;;;6216987;23;20400;-80
2021/05/29 14:49:52;;;;;;;40.93;4.20;;;23.00;1.00;;;;;;6216847;23;20408;-80
2021/05/29 14:52:24;;;;;;;41.97;5.00;;;23.50;1.00;;;;;;6215442;23;20400;-80
2021/05/29 14:54:56;;;;;;;41.57;4.10;;;23.30;1.00;;;;;;6226511;23;20494;-80
2021/05/29 14:57:27;;;;;;;43.87;6.27;;;22.50;1.00;;;;;;6227028;23;20440;-81
2021/05/29 14:59:59;;;;;;;40.87;4.10;;;22.30;1.00;;;;;;6216014;23;20421;-80
2021/05/29 15:02:29;;;;;;;44.03;4.57;;;21.90;1.00;;;;;;6216785;23;20421;-81
2021/05/29 15:04:59;;;;;;;41.43;4.50;;;22.70;1.00;;;;;;6226752;23;20387;-81
2021/05/29 15:07:28;;;;;;;42.40;5.20;;;22.20;1.00;;;;;;6225330;23;20447;-80
2021/05/29 15:10:00;;;;;;;41.37;4.90;;;22.60;1.00;;;;;;6226459;23;20910;-80
2021/05/29 15:12:26;;;;;;;41.33;4.07;;;22.70;1.00;;;;;;6216426;23;20403;-80
2021/05/29 15:14:53;;;;;;;40.77;3.73;;;22.30;1.00;;;;;;6216690;23;20750;-79
2021/05/29 15:17:20;;;;;;;39.80;3.53;;;22.30;1.00;;;;;;6216665;23;20397;-79
2021/05/29 15:19:46;;;;;;;39.47;3.33;;;22.50;1.00;;;;;;6216465;23;20427;-79
2021/05/29 15:22:16;;;;;;;41.20;5.80;;;22.90;1.00;;;;;;6214619;23;20400;-79
2021/05/29 15:24:43;;;;;;;39.50;4.10;;;23.00;1.00;;;;;;6226789;23;20466;-79
2021/05/29 15:27:11;;;;;;;46.57;3.37;;;23.50;1.00;;;;;;6226488;23;20416;-79
2021/05/29 15:29:39;;;;;;;42.17;4.00;;;23.10;1.00;;;;;;6216238;23;20410;-78
2021/05/29 15:32:08;;;;;;;41.27;3.60;;;23.00;1.00;;;;;;6216476;23;20428;-79
2021/05/29 15:34:34;;;;;;;42.57;4.10;;;22.60;1.00;;;;;;6216162;23;20407;-78
2021/05/29 15:37:01;;;;;;;42.73;3.53;;;22.00;1.00;;;;;;6214809;23;20851;-79
2021/05/29 15:39:29;;;;;;;41.77;4.67;;;22.70;1.00;;;;;;6216051;23;20407;-80
2021/05/29 15:41:56;;;;;;;40.10;4.17;;;23.30;1.00;;;;;;6216506;23;20396;-80
2021/05/29 15:44:23;;;;;;;39.70;3.30;;;23.40;1.00;;;;;;6216265;23;21035;-78
2021/05/29 15:46:49;;;;;;;38.30;2.90;;;22.60;1.00;;;;;;6216435;23;20544;-79
2021/05/29 15:49:16;;;;;;;44.40;3.50;;;22.40;1.00;;;;;;6216550;23;20409;-79
2021/05/29 15:51:42;;;;;;;41.97;4.63;;;22.10;1.00;;;;;;6222075;23;20419;-79
2021/05/29 15:54:09;;;;;;;38.40;3.53;;;22.30;1.00;;;;;;6223586;23;20903;-82
2021/05/29 15:56:37;;;;;;;37.17;3.47;;;21.40;1.00;;;;;;6227925;23;20407;-81
2021/05/29 15:59:12;;;;;;;38.60;4.20;;;21.60;1.00;;;;;;6223686;23;20444;-81
2021/05/29 16:01:38;;;;;;;37.40;3.80;;;22.10;1.00;;;;;;6214100;23;20755;-81
2021/05/29 16:04:05;;;;;;;41.17;4.83;;;21.90;1.00;;;;;;6224800;23;20408;-81
2021/05/29 16:06:31;;;;;;;38.77;3.70;;;22.20;1.00;;;;;;6222982;23;20415;-81
2021/05/29 16:08:57;;;;;;;39.33;4.10;;;21.80;1.00;;;;;;6214208;23;20408;-81
2021/05/29 16:11:24;;;;;;;38.43;4.13;;;22.50;1.00;;;;;;6213631;23;20439;-81
2021/05/29 16:13:51;;;;;;;41.40;4.10;;;22.70;1.00;;;;;;6223465;23;20442;-80
2021/05/29 16:16:23;;;;;;;39.57;4.20;;;22.80;1.00;;;;;;6214363;23;20730;-76
2021/05/29 16:18:49;;;;;;;39.73;3.80;;;22.60;1.00;;;;;;6214002;23;20446;-76
2021/05/29 16:21:16;;;;;;;39.47;3.77;;;22.60;1.00;;;;;;6213067;23;20440;-77
2021/05/29 16:23:43;;;;;;;39.10;4.00;;;22.40;1.00;;;;;;6212791;23;20404;-77
2021/05/29 16:26:10;;;;;;;42.67;4.90;;;22.90;1.00;;;;;;6214083;23;20898;-77
2021/05/29 16:28:36;;;;;;;40.07;4.73;;;23.00;1.00;;;;;;6213743;23;20401;-79
2021/05/29 16:31:06;;;;;;;37.70;3.13;;;23.90;1.00;;;;;;6214054;23;20409;-78
2021/05/29 16:33:34;;;;;;;39.17;3.80;;;23.00;1.00;;;;;;6223878;23;20943;-80
2021/05/29 16:36:03;;;;;;;37.27;3.33;;;22.20;1.00;;;;;;6214018;23;20438;-80
2021/05/29 16:38:30;;;;;;;38.60;4.73;;;21.50;1.00;;;;;;6225490;23;20428;-81
2021/05/29 16:40:57;;;;;;;39.63;5.43;;;21.40;1.00;;;;;;6226109;23;20787;-82
2021/05/29 16:43:24;;;;;;;37.77;3.53;;;21.70;1.00;;;;;;6238472;23;20439;-80
2021/05/29 16:45:52;;;;;;;38.93;4.20;;;22.00;1.00;;;;;;6225072;23;20410;-82
2021/05/29 16:48:20;;;;;;;38.37;4.67;;;22.30;1.00;;;;;;6221400;23;20401;-81
2021/05/29 16:51:00;;;;;;;37.40;3.93;;;23.00;1.00;;;;;;6225169;23;20412;-83
2021/05/29 16:53:27;;;;;;;36.77;3.67;;;23.60;1.00;;;;;;6223896;23;20792;-83
2021/05/29 16:55:59;;;;;;;38.40;4.53;;;23.80;1.00;;;;;;6215971;23;20431;-83
2021/05/29 16:58:25;;;;;;;37.27;3.63;;;23.50;1.00;;;;;;6215077;23;21024;-83
2021/05/29 17:00:52;;;;;;;38.53;3.77;;;23.90;1.00;;;;;;6215511;23;20432;-83
2021/05/29 17:03:19;;;;;;;40.10;4.40;;;23.80;1.00;;;;;;6215844;23;20401;-82
2021/05/29 17:05:47;;;;;;;36.83;3.57;;;23.50;1.00;;;;;;6215006;23;20483;-83
2021/05/29 17:08:15;;;;;;;35.90;2.90;;;23.40;1.00;;;;;;6214445;23;20454;-82
2021/05/29 17:10:41;;;;;;;38.50;3.50;;;22.70;1.00;;;;;;6225765;23;20458;-82
2021/05/29 17:13:08;;;;;;;35.77;2.70;;;23.30;1.00;;;;;;6225076;23;20478;-83
2021/05/29 17:15:34;;;;;;;36.27;3.50;;;23.50;1.00;;;;;;6225631;23;20431;-82
2021/05/29 17:18:02;;;;;;;35.40;3.20;;;23.90;1.00;;;;;;6215695;23;20479;-82
2021/05/29 17:20:29;;;;;;;34.47;2.83;;;23.60;1.00;;;;;;6215059;23;20907;-83
2021/05/29 17:22:57;;;;;;;37.10;3.50;;;22.90;1.00;;;;;;6213886;23;20400;-83
2021/05/29 17:25:23;;;;;;;36.50;3.73;;;23.70;1.00;;;;;;6225784;23;20427;-82
2021/05/29 17:27:53;;;;;;;35.97;3.70;;;24.20;1.00;;;;;;6215396;23;20423;-82
2021/05/29 17:30:21;;;;;;;34.97;3.33;;;23.30;1.00;;;;;;6225260;23;20738;-82
2021/05/29 17:32:48;;;;;;;37.33;4.23;;;23.50;1.00;;;;;;6215455;23;20408;-82
2021/05/29 17:35:16;;;;;;;36.17;3.90;;;24.10;1.00;;;;;;6215074;23;20492;-83
2021/05/29 17:37:43;;;;;;;34.20;3.30;;;25.30;1.00;;;;;;6214263;23;20400;-82
2021/05/29 17:40:15;;;;;;;35.43;3.90;;;25.50;1.00;;;;;;6225068;23;20447;-83
2021/05/29 17:42:41;;;;;;;34.90;3.40;;;24.50;1.00;;;;;;6215482;23;20783;-83
2021/05/29 17:45:10;;;;;;;35.30;3.10;;;24.70;1.00;;;;;;6225304;23;20432;-83
2021/05/29 17:47:37;;;;;;;36.00;3.50;;;24.90;1.00;;;;;;6217202;23;20400;-83
2021/05/29 17:50:04;;;;;;;35.60;3.83;;;24.90;1.00;;;;;;6227444;23;20443;-82
2021/05/29 17:52:31;;;;;;;33.67;3.20;;;24.80;1.00;;;;;;6216410;23;20407;-83
2021/05/29 17:54:58;;;;;;;33.90;3.20;;;25.30;1.00;;;;;;6217341;23;20456;-82
2021/05/29 17:57:30;;;;;;;34.70;2.83;;;25.70;1.00;;;;;;6217332;23;20762;-82
2021/05/29 18:00:12;;;;;;;35.10;3.33;;;25.60;1.00;;;;;;6226749;23;20515;-82
2021/05/29 18:02:41;;;;;;;34.50;3.27;;;24.50;1.00;;;;;;6217391;23;20450;-81
2021/05/29 18:05:15;;;;;;;34.07;2.83;;;23.60;1.00;;;;;;6217244;23;20723;-82
2021/05/29 18:07:41;;;;;;;32.67;2.93;;;23.10;1.00;;;;;;6225884;23;20515;-82
2021/05/29 18:10:09;;;;;;;33.10;3.00;;;22.50;1.00;;;;;;6227030;23;20521;-82
2021/05/29 18:12:36;;;;;;;32.60;2.83;;;22.20;1.00;;;;;;6227439;23;20432;-82
2021/05/29 18:15:04;;;;;;;31.77;2.70;;;21.20;1.00;;;;;;6217129;23;20491;-82
2021/05/29 18:17:35;;;;;;;31.63;2.80;;;22.30;1.00;;;;;;6227201;23;20412;-84
2021/05/29 18:20:03;;;;;;;30.87;3.00;;;22.40;1.00;;;;;;6226801;23;20442;-82
2021/05/29 18:22:30;;;;;;;29.97;3.00;;;22.50;1.00;;;;;;6215874;23;20428;-82
2021/05/29 18:24:58;;;;;;;31.10;3.87;;;21.10;1.00;;;;;;6227258;23;20411;-82
2021/05/29 18:27:24;;;;;;;30.50;3.83;;;19.80;1.00;;;;;;6217224;23;20405;-82
2021/05/29 18:29:54;;;;;;;31.97;4.17;;;19.50;1.00;;;;;;6216773;23;20408;-82
2021/05/29 18:32:21;;;;;;;30.47;4.33;;;19.30;1.00;;;;;;6226838;23;20876;-82
2021/05/29 18:34:49;;;;;;;29.70;4.10;;;20.70;1.00;;;;;;6216881;23;20400;-82
2021/05/29 18:37:29;;;;;;;28.93;4.23;;;21.60;1.00;;;;;;6215862;23;20458;-82
2021/05/29 18:39:55;;;;;;;29.40;5.80;;;21.60;1.00;;;;;;6216543;23;20411;-81
2021/05/29 18:42:27;;;;;;;31.17;6.40;;;22.10;1.00;;;;;;6226827;23;20404;-82
2021/05/29 18:44:55;;;;;;;32.97;7.07;;;22.40;1.00;;;;;;6216954;23;20404;-82
2021/05/29 18:47:21;;;;;;;30.97;5.70;;;22.80;1.00;;;;;;6216325;23;20412;-83
2021/05/29 18:49:48;;;;;;;32.60;7.37;;;22.80;1.00;;;;;;6216613;23;20406;-81
2021/05/29 18:52:14;;;;;;;28.83;4.77;;;22.90;1.00;;;;;;6225764;23;20408;-83
2021/05/29 18:54:41;;;;;;;29.00;5.27;;;22.90;1.00;;;;;;6217066;23;20405;-83
2021/05/29 18:57:19;;;;;;;28.97;4.43;;;22.50;1.00;;;;;;6216544;23;20475;-93
2021/05/29 18:59:59;;;;;;;29.53;4.17;;;22.10;1.00;;;;;;6225775;23;20869;-83
2021/05/29 19:02:30;;;;;;;27.37;4.20;;;21.70;1.00;;;;;;6226507;23;20838;-82
2021/05/29 19:05:03;;;;;;;29.03;3.60;;;21.10;1.00;;;;;;6226454;23;20471;-83
2021/05/29 19:07:36;;;;;;;29.43;4.67;;;20.40;1.00;;;;;;6215078;23;20880;-83
2021/05/29 19:10:08;;;;;;;29.50;6.33;;;19.80;1.00;;;;;;6226555;23;20404;-82
2021/05/29 19:12:35;;;;;;;29.30;5.80;;;19.50;1.00;;;;;;6226823;23;20522;-82
2021/05/29 19:15:06;;;;;;;31.73;5.27;;;18.90;1.00;;;;;;6216679;23;20423;-82
2021/05/29 19:17:40;;;;;;;27.73;3.90;;;18.40;1.00;;;;;;6216821;23;20486;-83
2021/05/29 19:20:08;;;;;;;28.50;5.00;;;18.00;1.00;;;;;;6216266;23;20406;-81
2021/05/29 19:22:42;;;;;;;26.40;5.10;;;17.60;1.00;;;;;;6215379;23;20779;-82
2021/05/29 19:25:16;;;;;;;27.80;4.97;;;17.00;1.00;;;;;;6226279;23;20779;-82
2021/05/29 19:28:02;;;;;;;24.83;4.43;;;16.20;4.30;;;;;;6226074;23;20406;-81
2021/05/29 19:30:38;;;;;;;27.87;4.83;;;15.50;8.40;;;;;;6226459;23;20755;-82
2021/05/29 19:33:22;;;;;;;26.40;4.43;;;15.00;12.90;;;;;;6216207;23;20404;-81
2021/05/29 19:41:30;;;;;;;24.93;5.30;;;14.00;25.10;;;;;;6216234;23;20485;-84
2021/05/29 19:44:08;;;;;;;22.33;4.87;;;13.80;27.30;;;;;;6216388;23;20517;-83
2021/05/29 19:47:11;;;;;;;26.50;4.90;;;13.80;28.60;;;;;;6226137;23;20403;-85
2021/05/29 20:11:40;;;;;;;21.60;4.93;;;13.00;55.30;;;;;;6225170;23;20426;-83
2021/05/29 20:25:50;;;;;;;27.30;7.13;;;12.80;63.30;;;;;;6225601;23;20875;-84
2021/05/29 20:28:20;;;;;;;23.60;5.27;;;12.90;63.10;;;;;;6215662;23;20495;-83
2021/05/29 20:30:47;;;;;;;23.70;5.30;;;12.90;62.10;;;;;;6215979;23;20473;-84
2021/05/29 20:33:15;;;;;;;26.93;5.77;;;12.80;62.30;;;;;;6215639;23;20876;-84
2021/05/29 20:35:41;;;;;;;23.20;6.00;;;12.80;61.90;;;;;;6215992;23;20407;-84
2021/05/29 20:38:09;;;;;;;25.17;5.77;;;12.80;62.00;;;;;;6224123;23;20404;-84
2021/05/29 20:40:35;;;;;;;22.00;4.60;;;12.60;65.50;;;;;;6215942;23;20432;-84
2021/05/29 20:43:07;;;;;;;22.73;6.80;;;12.40;71.20;;;;;;6215886;23;20873;-84
2021/05/29 20:45:42;;;;;;;23.07;6.73;;;12.40;76.50;;;;;;6216009;23;20401;-84
2021/05/29 20:48:10;;;;;;;24.63;5.97;;;12.20;84.00;;;;;;6215858;23;20400;-84
2021/05/29 20:50:36;;;;;;;26.60;6.57;;;12.10;91.00;;;;;;6215868;23;20775;-83
2021/05/29 20:53:06;;;;;;;21.27;4.30;;;12.00;91.80;;;;;;6214394;23;20396;-84
2021/05/29 20:55:33;;;;;;;20.80;5.67;;;11.90;94.50;;;;;;6215872;23;20404;-84
2021/05/29 20:58:00;;;;;;;23.40;5.23;;;11.80;96.00;;;;;;6215375;23;20404;-83
2021/05/29 21:00:26;;;;;;;20.30;5.70;;;11.80;98.80;;;;;;6225745;23;20891;-84
2021/05/29 21:02:53;;;;;;;23.10;6.60;;;11.70;99.90;;;;;;6225339;23;20416;-83
2021/05/29 21:05:19;;;;;;;31.80;6.13;;;11.70;99.90;;;;;;6225342;23;20470;-83
2021/05/29 21:07:47;;;;;;;21.77;5.30;;;11.60;99.90;;;;;;6214302;23;20431;-84
2021/05/29 21:10:16;;;;;;;20.83;6.23;;;11.70;99.90;;;;;;6215199;23;20450;-84
2021/05/29 21:12:58;;;;;;;19.23;6.30;;;11.70;99.90;;;;;;6225838;23;20482;-83
2021/05/29 21:15:29;;;;;;;22.50;5.87;;;11.90;98.10;;;;;;6214191;23;20740;-84
2021/05/29 21:21:03;;;;;;;41.33;9.00;;;11.90;96.70;;;;;;6225268;23;20803;-83
2021/05/29 21:23:29;;;;;;;30.43;10.20;;;11.70;99.90;;;;;;6214047;23;20400;-84
2021/05/29 21:26:00;;;;;;;33.73;11.37;;;11.50;99.90;;;;;;6225607;23;20432;-83
2021/05/29 21:28:34;;;;;;;38.87;12.10;;;11.40;99.90;;;;;;6225168;23;20412;-83
2021/05/29 21:31:01;;;;;;;38.20;14.00;;;11.30;99.90;;;;;;6225356;23;20426;-84
2021/05/29 21:33:27;;;;;;;32.90;9.20;;;11.20;99.90;;;;;;6215355;23;20396;-84
2021/05/29 21:35:55;;;;;;;43.73;16.00;;;11.10;99.90;;;;;;6225518;23;20412;-83
2021/05/29 21:38:22;;;;;;;30.33;9.10;;;11.00;99.90;;;;;;6214001;23;20400;-84
2021/05/29 21:40:52;;;;;;;20.60;7.73;;;11.00;99.90;;;;;;6215333;23;20455;-83
2021/05/29 21:43:20;;;;;;;23.77;8.00;;;11.00;99.90;;;;;;6215564;23;20880;-83
2021/05/29 21:51:17;;;;;;;20.17;7.90;;;10.60;99.90;;;;;;6215123;23;20403;-83
2021/05/29 21:53:44;;;;;;;22.33;9.53;;;10.60;99.90;;;;;;6214896;23;20451;-83
2021/05/29 21:56:12;;;;;;;18.57;7.67;;;10.40;99.90;;;;;;6215240;23;20463;-84
2021/05/29 21:58:38;;;;;;;18.80;7.10;;;10.30;99.90;;;;;;6215136;23;20435;-83
2021/05/29 22:01:19;;;;;;;20.43;8.17;;;10.10;99.90;;;;;;6225346;23;20451;-83
2021/05/29 22:03:46;;;;;;;19.57;8.27;;;10.00;99.90;;;;;;6225094;23;20729;-83
2021/05/29 22:06:13;;;;;;;19.77;9.20;;;9.90;99.90;;;;;;6215438;23;20740;-83
2021/05/29 22:08:39;;;;;;;18.30;11.20;;;9.70;99.90;;;;;;6223997;23;20416;-83
2021/05/29 22:11:18;;;;;;;22.87;13.33;;;9.60;99.90;;;;;;6215417;23;20436;-82
2021/05/29 22:18:00;;;;;;;25.13;15.40;;;9.50;99.90;;;;;;6215403;23;20400;-84
2021/05/29 22:19:25;;;;;;;25.77;22.43;;;9.40;99.90;;;;;;6215103;23;20495;-83
2021/05/29 22:22:12;;;;;;;28.03;21.40;;;9.40;99.90;;;;;;6213918;23;20467;-83
2021/05/29 22:30:11;;;;;;;32.47;29.67;;;9.00;99.90;;;;;;6168579;23;20748;-83
2021/05/29 22:32:39;;;;;;;37.10;34.00;;;8.90;99.90;;;;;;6215416;23;20450;-83
2021/05/29 22:35:07;;;;;;;46.73;42.93;;;8.90;99.90;;;;;;6217032;23;20727;-84
2021/05/29 22:37:33;;;;;;;42.53;38.90;;;9.10;99.90;;;;;;6215434;23;20401;-83
2021/05/29 22:40:03;;;;;;;41.33;38.30;;;9.20;99.90;;;;;;6227008;23;20412;-83
2021/05/29 22:42:29;;;;;;;38.77;35.67;;;9.10;99.90;;;;;;6226734;23;20782;-83
2021/05/29 22:44:56;;;;;;;43.50;40.10;;;9.10;99.90;;;;;;6216731;23;20895;-83
2021/05/29 22:47:26;;;;;;;40.97;37.77;;;9.10;99.90;;;;;;6227044;23;20420;-83
2021/05/29 22:49:56;;;;;;;41.17;37.90;;;9.00;99.90;;;;;;6216951;23;20735;-83